Ithaca, New York
Current Conditions -  °F | °C
As of 9:56 AM on Thursday 18 Dec 2014 (Local Time) from KITH Reporting Station
Overcast Overcast  
Wind Chill: -7°   Ceiling: 1500
Heat Index:   Visibility: 10mi
Dew Point: -3°   Wind: 16mph
Humidity: 85%   Direction: 300°WNW
Pressure: 30.04"   Gusts: NA
Location:  42.44°N, 76.49°W
Report Text: KITH 181456Z 30014KT 10SM OVC015 M01/M03 A3004 RMK AO2 51012 60000 T10051027 SHSNE52 P0000 SLP184
Loading
Personal Weather Stations






























Interactive Weather Map New forecast layout! Learn more

10-Day Weather Forecast

Advertisements
Track Severe Weather on mobile